Time;durP1;ratioP1;P1;durP2;ratioP2;P2;SDS_P1;SDS_P2;PMS_P1;PMS_P2;Temp;Humidity;BMP_temperature;BMP_pressure;BME280_temperature;BME280_humidity;BME280_pressure;Samples;Min_cycle;Max_cycle;Signal;HPM_P1;HPM_P2
2022/05/19 00:01:56;;;;;;;1.45;1.35;;;;;;;10.02;74.66;98368.50;6104974;23;20021;-78
2022/05/19 00:04:22;;;;;;;1.35;1.30;;;;;;;9.87;74.75;98376.09;6081455;23;20024;-78
2022/05/19 00:06:48;;;;;;;1.20;1.15;;;;;;;9.81;75.18;98388.16;6129347;23;20359;-78
2022/05/19 00:09:14;;;;;;;1.58;1.30;;;;;;;9.77;75.45;98376.09;6105292;23;20017;-78
2022/05/19 00:11:41;;;;;;;2.00;1.38;;;;;;;9.73;75.57;98391.53;6105656;23;20029;-79
2022/05/19 00:14:09;;;;;;;3.33;1.40;;;;;;;9.68;75.65;98388.47;6082231;23;20024;-78
2022/05/19 00:16:35;;;;;;;1.00;1.00;;;;;;;9.67;75.35;98397.44;6130652;23;20092;-78
2022/05/19 00:19:01;;;;;;;1.17;1.17;;;;;;;9.71;75.41;98403.34;6105631;23;20028;-78
2022/05/19 00:21:27;;;;;;;1.35;1.30;;;;;;;9.73;75.00;98396.03;6129738;23;20116;-78
2022/05/19 00:23:53;;;;;;;1.30;1.20;;;;;;;9.72;74.67;98384.53;6129377;23;20021;-79
2022/05/19 00:26:19;;;;;;;1.55;1.20;;;;;;;9.60;74.76;98390.16;6104789;23;20387;-79
2022/05/19 00:28:46;;;;;;;1.17;1.17;;;;;;;9.76;74.32;98401.09;6105140;23;20018;-80
2022/05/19 00:31:12;;;;;;;1.52;1.20;;;;;;;9.79;74.08;98410.66;6104730;23;20056;-79
2022/05/19 00:33:37;;;;;;;1.13;1.10;;;;;;;9.80;73.77;98407.00;6104514;23;20365;-78
2022/05/19 00:36:12;;;;;;;1.67;1.10;;;;;;;9.71;73.86;98419.38;6130520;23;20107;-80
2022/05/19 00:38:39;;;;;;;1.10;1.10;;;;;;;9.68;73.84;98412.47;6131481;23;20032;-79
2022/05/19 00:41:05;;;;;;;1.20;1.20;;;;;;;9.76;73.38;98419.78;6130960;23;20346;-79
2022/05/19 00:43:40;;;;;;;1.52;1.38;;;;;;;9.66;72.96;98410.91;6131478;23;20393;-79
2022/05/19 00:46:18;;;;;;;1.55;1.45;;;;;;;9.65;72.87;98410.06;6106806;23;20462;-79
2022/05/19 00:49:00;;;;;;;1.55;1.45;;;;;;;9.75;72.48;98411.94;6131095;23;20450;-80
2022/05/19 00:51:40;;;;;;;1.58;1.48;;;;;;;9.77;72.09;98450.81;6157220;23;20057;-79
2022/05/19 00:54:10;;;;;;;1.35;1.35;;;;;;;9.69;71.70;98438.16;6106641;23;20021;-79
2022/05/19 00:56:42;;;;;;;1.50;1.40;;;;;;;9.63;71.51;98437.91;6157244;23;20028;-79
2022/05/19 00:59:11;;;;;;;1.50;1.40;;;;;;;9.57;71.62;98438.44;6107252;23;20021;-80
2022/05/19 01:01:44;;;;;;;1.60;1.50;;;;;;;9.57;71.57;98438.44;6131174;23;20041;-78
2022/05/19 01:05:01;;;;;;;1.45;1.40;;;;;;;9.66;71.27;98437.59;6156570;23;20099;-80
2022/05/19 01:07:46;;;;;;;1.42;1.33;;;;;;;9.68;70.38;98436.50;6082866;23;20052;-78
2022/05/19 01:10:14;;;;;;;2.38;1.58;;;;;;;9.65;70.07;98431.44;6131194;23;20377;-78
2022/05/19 01:12:44;;;;;;;1.70;1.60;;;;;;;9.61;69.86;98424.69;6106423;23;20018;-78
2022/05/19 01:15:10;;;;;;;1.60;1.50;;;;;;;9.73;69.87;98465.41;6106256;23;20488;-78
2022/05/19 01:17:37;;;;;;;1.65;1.55;;;;;;;9.62;69.86;98436.19;6156424;23;20428;-78
2022/05/19 01:20:17;;;;;;;1.90;1.80;;;;;;;9.62;70.09;98463.72;6130884;23;20024;-78
2022/05/19 01:22:56;;;;;;;1.52;1.42;;;;;;;9.55;70.32;98461.75;6106010;23;20017;-78
2022/05/19 01:25:37;;;;;;;1.42;1.33;;;;;;;9.55;69.79;98477.75;6106054;23;20349;-78
2022/05/19 01:28:04;;;;;;;3.30;1.38;;;;;;;9.44;69.38;98474.25;6106553;23;20025;-78
2022/05/19 01:30:30;;;;;;;1.20;1.15;;;;;;;9.40;69.20;98488.81;6105908;23;20345;-78
2022/05/19 01:32:56;;;;;;;5.30;1.55;;;;;;;9.40;68.88;98475.50;6105907;23;20021;-79
2022/05/19 01:35:22;;;;;;;1.77;1.50;;;;;;;9.35;69.25;98515.03;6130523;23;20021;-78
2022/05/19 01:37:48;;;;;;;1.55;1.45;;;;;;;9.30;69.67;98509.28;6130417;23;20092;-80
2022/05/19 01:40:35;;;;;;;;;;;;;;;9.37;69.89;98496.25;6107057;23;20021;-79
2022/05/19 01:43:18;;;;;;;1.50;1.40;;;;;;;9.28;70.08;98518.38;6130570;23;19912;-80
2022/05/19 01:46:12;;;;;;;1.67;1.58;;;;;;;9.38;69.80;98509.44;6106075;23;20365;-79
2022/05/19 01:48:51;;;;;;;1.42;1.33;;;;;;;9.36;69.47;98514.06;6106301;23;20017;-79
2022/05/19 01:51:33;;;;;;;4.53;1.48;;;;;;;9.46;68.99;98528.28;6129941;23;20021;-80
2022/05/19 01:54:14;;;;;;;1.52;1.42;;;;;;;9.42;68.75;98521.53;6105944;23;20021;-80
2022/05/19 01:57:09;;;;;;;1.60;1.50;;;;;;;9.37;69.24;98538.94;6106307;23;20052;-79
2022/05/19 01:59:48;;;;;;;1.42;1.33;;;;;;;9.40;69.04;98549.31;6122116;23;20041;-79
2022/05/19 02:02:27;;;;;;;1.85;1.30;;;;;;;9.37;69.01;98534.44;6106104;23;20126;-79
2022/05/19 02:05:02;;;;;;;5.80;1.35;;;;;;;9.41;69.25;98530.53;6105937;23;20018;-80
2022/05/19 02:07:33;;;;;;;1.35;1.25;;;;;;;9.33;68.83;98543.69;6082737;23;20156;-79
2022/05/19 02:10:20;;;;;;;1.60;1.40;;;;;;;9.44;68.93;98548.94;6130640;23;20022;-80
2022/05/19 02:12:47;;;;;;;1.60;1.50;;;;;;;9.46;68.38;98538.09;6105495;23;20017;-79
2022/05/19 02:15:17;;;;;;;1.80;1.20;;;;;;;9.49;68.00;98553.84;6105636;23;20025;-79
2022/05/19 02:17:47;;;;;;;1.80;1.70;;;;;;;9.48;67.89;98542.34;6130868;23;20013;-78
2022/05/19 02:20:17;;;;;;;2.83;1.60;;;;;;;9.48;68.05;98542.34;6155863;23;20025;-79
2022/05/19 02:22:44;;;;;;;1.85;1.48;;;;;;;9.56;67.96;98554.16;6105773;23;20508;-79
2022/05/19 02:25:27;;;;;;;1.50;1.40;;;;;;;9.64;67.92;98551.66;6105203;23;20017;-79
2022/05/19 02:28:15;;;;;;;1.70;1.60;;;;;;;9.75;67.04;98543.53;6105013;23;20026;-79
2022/05/19 02:30:42;;;;;;;2.33;1.63;;;;;;;9.89;66.81;98553.81;6130348;23;20104;-80
2022/05/19 02:33:11;;;;;;;4.72;1.40;;;;;;;9.88;66.82;98560.13;6154669;23;20021;-79
2022/05/19 02:35:36;;;;;;;1.60;1.50;;;;;;;9.88;66.62;98562.78;6129503;23;20064;-79
2022/05/19 02:38:03;;;;;;;2.33;1.45;;;;;;;9.92;66.17;98534.84;6129278;23;20025;-80
2022/05/19 02:40:32;;;;;;;1.42;1.33;;;;;;;9.91;64.71;98575.88;6104814;23;20386;-79
2022/05/19 02:42:59;;;;;;;1.50;1.40;;;;;;;9.96;65.02;98580.78;6129663;23;20021;-80
2022/05/19 02:45:26;;;;;;;1.20;1.20;;;;;;;10.06;63.87;98583.50;6104924;23;20018;-79
2022/05/19 02:47:52;;;;;;;1.42;1.33;;;;;;;9.96;63.77;98580.78;6105395;23;20025;-79
2022/05/19 02:50:20;;;;;;;1.10;1.10;;;;;;;9.94;63.28;98623.66;6129055;23;20104;-79
2022/05/19 02:52:46;;;;;;;1.52;1.40;;;;;;;9.91;63.19;98601.72;6129622;23;20071;-80
2022/05/19 02:55:13;;;;;;;1.98;1.50;;;;;;;9.92;62.99;98576.72;6129468;23;20017;-79
2022/05/19 02:57:39;;;;;;;1.75;1.65;;;;;;;10.07;62.95;98595.84;6104879;23;20021;-79
2022/05/19 03:00:12;;;;;;;2.55;1.60;;;;;;;9.98;62.63;98577.00;6153676;23;20021;-78
2022/05/19 03:02:39;;;;;;;2.40;1.30;;;;;;;9.97;62.73;98596.69;6104270;23;20021;-80
2022/05/19 03:05:06;;;;;;;3.05;1.63;;;;;;;10.17;62.47;98596.72;6104766;23;20044;-79
2022/05/19 03:07:32;;;;;;;1.92;1.70;;;;;;;9.98;62.35;98598.38;6155622;23;20323;-79
2022/05/19 03:09:58;;;;;;;4.63;1.65;;;;;;;9.97;63.05;98618.03;6155775;23;20032;-79
2022/05/19 03:12:24;;;;;;;1.42;1.33;;;;;;;9.89;63.48;98609.00;6105112;23;20024;-81
2022/05/19 03:14:49;;;;;;;1.50;1.40;;;;;;;9.90;63.46;98595.53;6129849;23;20070;-81
2022/05/19 03:17:15;;;;;;;1.40;1.30;;;;;;;9.92;62.98;98598.91;6081317;23;20021;-80
2022/05/19 03:19:41;;;;;;;1.73;1.63;;;;;;;9.95;62.59;98614.66;6129425;23;20025;-78
2022/05/19 03:22:07;;;;;;;1.70;1.60;;;;;;;9.95;63.03;98624.50;6155200;23;20018;-79
2022/05/19 03:24:34;;;;;;;5.25;1.60;;;;;;;9.88;62.65;98621.53;6105429;23;20017;-81
2022/05/19 03:27:00;;;;;;;1.67;1.58;;;;;;;9.64;63.05;98653.06;6155736;23;20025;-81
2022/05/19 03:29:26;;;;;;;1.55;1.45;;;;;;;9.51;63.76;98647.06;6132224;23;20017;-81
2022/05/19 03:31:52;;;;;;;0.90;0.90;;;;;;;9.46;63.92;98661.66;6114741;23;20031;-85
2022/05/19 03:34:18;;;;;;;1.60;1.50;;;;;;;9.48;63.95;98673.06;6171700;23;20037;-83
2022/05/19 03:36:45;;;;;;;1.70;1.60;;;;;;;9.68;63.45;98665.16;6118927;23;20017;-85
2022/05/19 03:39:12;;;;;;;1.50;1.40;;;;;;;9.80;62.88;98653.38;6142504;23;20137;-83
2022/05/19 03:41:38;;;;;;;1.65;1.55;;;;;;;9.98;62.71;98653.59;6135226;23;20032;-85
2022/05/19 03:44:05;;;;;;;1.90;1.80;;;;;;;10.16;62.32;98676.00;6105354;23;20028;-87
2022/05/19 03:46:31;;;;;;;1.60;1.50;;;;;;;10.13;61.59;98646.88;6105109;23;20026;-86
2022/05/19 03:48:57;;;;;;;1.77;1.67;;;;;;;10.27;61.19;98668.88;6155806;23;20013;-89
2022/05/19 03:51:26;;;;;;;1.50;1.40;;;;;;;10.39;61.49;98668.63;6107192;23;20378;-86
2022/05/19 03:53:53;;;;;;;1.73;1.63;;;;;;;10.28;60.97;98695.47;6131780;23;20461;-85
2022/05/19 03:56:21;;;;;;;5.28;1.33;;;;;;;10.26;61.01;98676.03;6107101;23;20021;-83
2022/05/19 03:58:48;;;;;;;3.25;1.80;;;;;;;10.34;61.38;98691.38;6107142;23;20377;-86
2022/05/19 04:01:15;;;;;;;1.33;1.30;;;;;;;10.14;61.45;98672.59;6130701;23;20017;-85
2022/05/19 04:03:41;;;;;;;1.63;1.52;;;;;;;10.33;61.03;98685.19;6156963;23;20064;-79
2022/05/19 04:06:08;;;;;;;1.70;1.60;;;;;;;10.30;60.65;98700.66;6104430;23;20037;-80
2022/05/19 04:08:37;;;;;;;1.50;1.40;;;;;;;10.08;61.14;98699.00;6130690;23;20060;-80
2022/05/19 04:11:05;;;;;;;1.73;1.63;;;;;;;10.19;61.56;98706.91;6105797;23;20075;-83
2022/05/19 04:13:31;;;;;;;3.28;1.90;;;;;;;10.16;61.58;98720.56;6130899;23;20013;-78
2022/05/19 04:15:57;;;;;;;1.75;1.52;;;;;;;10.20;61.82;98706.78;6110262;23;20060;-81
2022/05/19 04:18:23;;;;;;;1.50;1.42;;;;;;;10.22;61.85;98702.16;6147089;23;20048;-80
2022/05/19 04:20:49;;;;;;;1.55;1.40;;;;;;;10.22;60.80;98722.66;6171987;23;20022;-80
2022/05/19 04:23:17;;;;;;;2.92;1.30;;;;;;;10.21;61.18;98727.16;6173285;23;20044;-82
2022/05/19 04:25:43;;;;;;;1.40;1.30;;;;;;;10.35;60.73;98704.63;6129418;23;20001;-79
2022/05/19 04:28:10;;;;;;;1.42;1.17;;;;;;;10.51;59.52;98708.59;6138913;23;20024;-80
2022/05/19 04:30:36;;;;;;;1.20;1.10;;;;;;;10.68;58.99;98715.91;6109737;23;20021;-83
2022/05/19 04:33:03;;;;;;;3.50;1.27;;;;;;;10.82;58.61;98722.69;6160167;23;20048;-81
2022/05/19 04:35:30;;;;;;;1.60;1.20;;;;;;;10.97;58.00;98702.56;6130299;23;20022;-81
2022/05/19 04:37:57;;;;;;;4.70;1.65;;;;;;;11.22;57.04;98701.16;6130622;23;20023;-78
2022/05/19 04:40:23;;;;;;;1.70;1.00;;;;;;;11.40;56.24;98703.97;6157332;23;20390;-79
2022/05/19 04:42:49;;;;;;;2.60;1.33;;;;;;;11.63;56.21;98712.50;6106686;23;20013;-81
2022/05/19 04:45:17;;;;;;;1.05;1.05;;;;;;;11.75;55.06;98721.19;6130965;23;20500;-82
2022/05/19 04:47:43;;;;;;;1.60;1.40;;;;;;;11.91;54.86;98724.13;6130818;23;20024;-83
2022/05/19 04:50:11;;;;;;;1.50;1.40;;;;;;;11.95;54.48;98730.03;6106930;23;20018;-84
2022/05/19 04:52:38;;;;;;;1.50;1.13;;;;;;;11.87;53.33;98728.94;6130851;23;20021;-80
2022/05/19 04:55:06;;;;;;;1.40;1.30;;;;;;;11.88;53.51;98725.28;6105618;23;20014;-81
2022/05/19 04:57:32;;;;;;;1.48;1.38;;;;;;;12.21;53.52;98728.38;6130607;23;20025;-79
2022/05/19 04:59:57;;;;;;;1.40;1.30;;;;;;;12.27;53.04;98725.13;6106229;23;20013;-80
2022/05/19 05:02:24;;;;;;;1.38;1.27;;;;;;;12.56;51.11;98724.09;6131372;23;20045;-77
2022/05/19 05:04:50;;;;;;;3.28;1.50;;;;;;;12.66;51.17;98716.84;6108738;23;20017;-78
2022/05/19 05:07:16;;;;;;;1.30;1.20;;;;;;;12.50;51.04;98735.44;6140403;23;20021;-79
2022/05/19 05:09:42;;;;;;;1.30;1.23;;;;;;;12.46;49.37;98745.63;6136021;23;20021;-79
2022/05/19 05:12:09;;;;;;;1.42;1.33;;;;;;;12.59;49.85;98729.16;6157305;23;20022;-80
2022/05/19 05:14:35;;;;;;;3.25;1.13;;;;;;;12.80;48.84;98734.25;6082699;23;20022;-78
2022/05/19 05:17:01;;;;;;;1.02;1.02;;;;;;;12.94;47.22;98738.22;6130749;23;20021;-84
2022/05/19 05:19:27;;;;;;;1.63;1.27;;;;;;;13.11;48.82;98745.44;6105372;23;20017;-81
2022/05/19 05:21:58;;;;;;;1.02;1.00;;;;;;;13.35;48.97;98737.66;6155474;23;20068;-82
2022/05/19 05:24:24;;;;;;;1.63;1.30;;;;;;;13.14;48.76;98755.88;6106096;23;20017;-79
2022/05/19 05:26:50;;;;;;;1.98;1.42;;;;;;;12.93;49.40;98747.28;6105323;23;20017;-80
2022/05/19 05:29:16;;;;;;;2.17;1.40;;;;;;;12.92;50.24;98742.91;6105604;23;20023;-80
2022/05/19 05:31:42;;;;;;;1.60;1.40;;;;;;;13.03;50.43;98743.53;6106346;23;20023;-82
2022/05/19 05:34:08;;;;;;;1.13;1.13;;;;;;;12.92;50.38;98762.53;6130061;23;20538;-82
2022/05/19 05:36:33;;;;;;;1.30;1.30;;;;;;;13.00;50.38;98751.03;6130396;23;20109;-79
2022/05/19 05:38:59;;;;;;;1.85;1.30;;;;;;;12.86;50.29;98753.28;6105168;23;20138;-82
2022/05/19 05:41:25;;;;;;;2.45;1.55;;;;;;;12.78;50.74;98769.25;6105248;23;20024;-80
2022/05/19 05:43:52;;;;;;;4.20;1.05;;;;;;;12.93;49.63;98752.66;6130185;23;20021;-79
2022/05/19 05:46:18;;;;;;;1.02;1.02;;;;;;;13.03;47.97;98769.53;6130352;23;20112;-82
2022/05/19 05:48:45;;;;;;;1.30;1.20;;;;;;;12.98;47.64;98761.94;6155430;23;20021;-81
2022/05/19 05:51:13;;;;;;;5.10;1.60;;;;;;;13.02;48.42;98746.38;6129552;23;20072;-80
2022/05/19 05:53:41;;;;;;;1.88;1.70;;;;;;;13.11;49.86;98756.19;6129440;23;20026;-79
2022/05/19 05:56:09;;;;;;;1.45;1.30;;;;;;;13.30;50.90;98755.22;6129974;23;20389;-81
2022/05/19 05:58:38;;;;;;;2.20;1.40;;;;;;;13.30;49.76;98766.78;6105795;23;20390;-80
2022/05/19 06:01:07;;;;;;;3.33;1.55;;;;;;;13.43;49.34;98768.25;6129716;23;20061;-79
2022/05/19 06:03:33;;;;;;;2.85;1.50;;;;;;;13.51;48.91;98774.53;6104661;23;20105;-83
2022/05/19 06:06:00;;;;;;;1.70;1.60;;;;;;;13.36;49.15;98752.75;6130475;23;20028;-84
2022/05/19 06:08:26;;;;;;;1.60;1.50;;;;;;;13.56;48.38;98772.22;6155795;23;20381;-87
2022/05/19 06:10:52;;;;;;;2.63;1.38;;;;;;;13.39;48.65;98759.69;6130310;23;20034;-77
2022/05/19 06:13:18;;;;;;;5.75;1.50;;;;;;;13.66;48.51;98765.94;6129480;23;20044;-81
2022/05/19 06:15:44;;;;;;;1.48;1.38;;;;;;;13.71;48.01;98772.50;6105466;23;20048;-89
2022/05/19 06:18:11;;;;;;;1.70;1.60;;;;;;;13.72;47.14;98765.28;6129397;23;20040;-79
2022/05/19 06:20:39;;;;;;;1.50;1.42;;;;;;;13.38;47.44;98767.88;6154223;23;20025;-81
2022/05/19 06:23:06;;;;;;;1.67;1.58;;;;;;;13.27;46.64;98761.72;6105009;23;20018;-79
2022/05/19 06:25:32;;;;;;;2.85;1.55;;;;;;;13.09;47.24;98769.78;6104759;23;20048;-81
2022/05/19 06:28:00;;;;;;;2.03;1.30;;;;;;;13.22;46.68;98779.28;6129225;23;20509;-84
2022/05/19 06:30:29;;;;;;;3.05;1.40;;;;;;;13.21;46.29;98778.44;6129592;23;20113;-81
2022/05/19 06:32:55;;;;;;;1.40;1.30;;;;;;;13.42;45.83;98786.19;6079920;23;20024;-81
2022/05/19 06:35:30;;;;;;;3.60;1.20;;;;;;;13.38;45.90;98778.59;6128901;23;20044;-81
2022/05/19 06:37:57;;;;;;;2.20;1.60;;;;;;;13.36;45.82;98776.94;6129421;23;20028;-81
2022/05/19 06:40:25;;;;;;;1.50;1.40;;;;;;;13.42;46.58;98769.25;6129569;23;20017;-84
2022/05/19 06:42:51;;;;;;;1.50;1.40;;;;;;;13.48;46.15;98768.63;6129369;23;20017;-82
2022/05/19 06:45:22;;;;;;;1.60;1.50;;;;;;;13.58;45.40;98772.06;6153815;23;20017;-79
2022/05/19 06:47:49;;;;;;;1.50;1.40;;;;;;;13.65;45.60;98775.81;6153393;23;20021;-79
2022/05/19 06:50:15;;;;;;;1.92;1.48;;;;;;;13.87;45.92;98757.50;6129236;23;20082;-81
2022/05/19 06:52:47;;;;;;;4.20;1.50;;;;;;;14.17;45.22;98770.44;6129122;23;20092;-79
2022/05/19 06:55:16;;;;;;;1.48;1.38;;;;;;;14.39;43.97;98768.19;6104731;23;20446;-79
2022/05/19 06:57:42;;;;;;;1.60;1.47;;;;;;;14.04;43.28;98764.66;6105130;23;20104;-79
2022/05/19 07:00:14;;;;;;;2.30;1.52;;;;;;;14.22;44.25;98760.06;6129389;23;20265;-80
2022/05/19 07:02:47;;;;;;;2.28;1.45;;;;;;;14.65;43.19;98735.91;6128212;23;20017;-78
2022/05/19 07:05:13;;;;;;;1.60;1.50;;;;;;;14.86;42.05;98759.69;6129544;23;20025;-84
2022/05/19 07:07:39;;;;;;;1.90;1.73;;;;;;;14.65;42.42;98754.72;6128920;23;20025;-79
2022/05/19 07:10:06;;;;;;;2.15;1.98;;;;;;;14.60;44.52;98746.31;6155501;23;20048;-78
2022/05/19 07:12:33;;;;;;;4.57;1.80;;;;;;;14.96;44.25;98754.97;6104441;23;20405;-78
2022/05/19 07:15:00;;;;;;;3.85;1.75;;;;;;;15.04;43.07;98758.53;6128707;23;20028;-78
2022/05/19 07:17:26;;;;;;;1.73;1.40;;;;;;;14.53;43.58;98759.56;6103425;23;20018;-79
2022/05/19 07:22:36;;;;;;;3.50;1.77;;;;;;;14.36;44.58;98760.44;6104560;23;20021;-78
2022/05/19 07:25:06;;;;;;;5.22;1.85;;;;;;;14.48;44.65;98746.56;6154347;23;20468;-78
2022/05/19 07:27:33;;;;;;;4.03;1.90;;;;;;;14.67;45.18;98750.00;6152939;23;20025;-77
2022/05/19 07:30:00;;;;;;;1.98;1.80;;;;;;;14.33;45.97;98759.78;6103844;23;20441;-79
2022/05/19 07:32:27;;;;;;;1.88;1.77;;;;;;;14.57;45.86;98752.84;6153016;23;20074;-78
2022/05/19 07:34:56;;;;;;;4.35;2.65;;;;;;;14.72;45.58;98740.47;6080489;23;20145;-79
2022/05/19 07:37:23;;;;;;;4.50;1.90;;;;;;;14.40;46.05;98732.22;6155571;23;20024;-78
2022/05/19 07:39:49;;;;;;;8.88;2.08;;;;;;;14.62;45.30;98731.69;6104586;23;20492;-76
2022/05/19 07:42:15;;;;;;;2.85;1.83;;;;;;;14.33;45.74;98738.28;6129209;23;20021;-79
2022/05/19 07:44:41;;;;;;;3.40;1.98;;;;;;;14.40;46.07;98743.00;6104601;23;20025;-79
2022/05/19 07:47:07;;;;;;;2.30;2.10;;;;;;;14.39;46.27;98741.31;6105872;23;20115;-79
2022/05/19 07:49:34;;;;;;;5.32;2.03;;;;;;;14.63;45.42;98733.38;6105970;23;20049;-78
2022/05/19 07:52:00;;;;;;;2.15;2.00;;;;;;;14.56;45.68;98726.97;6129446;23;20029;-78
2022/05/19 07:54:27;;;;;;;3.35;2.22;;;;;;;14.64;46.64;98737.75;6129362;23;20112;-79
2022/05/19 07:56:53;;;;;;;4.03;2.00;;;;;;;14.15;47.51;98740.22;6130120;23;20025;-79
2022/05/19 07:59:20;;;;;;;6.28;2.95;;;;;;;13.95;49.02;98738.72;6105822;23;20076;-79
2022/05/19 08:01:47;;;;;;;2.47;2.28;;;;;;;13.76;50.83;98743.31;6155986;23;20049;-78
2022/05/19 08:04:14;;;;;;;2.83;2.60;;;;;;;13.33;52.61;98749.53;6130214;23;20017;-79
2022/05/19 08:06:40;;;;;;;3.38;2.70;;;;;;;12.88;55.83;98750.44;6105429;23;20017;-80
2022/05/19 08:15:34;;;;;;;3.90;2.97;;;;;;;13.07;57.43;98727.97;6012963;23;20027;-81
2022/05/19 08:17:57;;;;;;;3.58;3.28;;;;;;;14.28;56.78;98705.63;6134953;23;20049;-78
2022/05/19 08:20:23;;;;;;;3.63;3.33;;;;;;;14.82;55.92;98708.88;6154086;23;20025;-78
2022/05/19 08:22:49;;;;;;;5.15;3.50;;;;;;;15.00;54.52;98707.88;6153895;23;20461;-80
2022/05/19 08:25:15;;;;;;;4.38;3.90;;;;;;;14.95;53.46;98710.25;6129949;23;20025;-79
2022/05/19 08:27:44;;;;;;;3.38;3.08;;;;;;;14.80;53.29;98710.88;6129280;23;20357;-79
2022/05/19 08:30:12;;;;;;;2.75;2.55;;;;;;;14.43;54.04;98713.09;6104945;23;20065;-79
2022/05/19 08:32:38;;;;;;;2.67;2.47;;;;;;;14.41;54.18;98707.91;6105181;23;20685;-79
2022/05/19 08:35:07;;;;;;;3.58;2.80;;;;;;;14.30;54.99;98709.03;6154259;23;20025;-79
2022/05/19 08:37:33;;;;;;;2.70;2.45;;;;;;;14.02;55.32;98707.53;6129148;23;20022;-78
2022/05/19 08:39:58;;;;;;;3.55;2.42;;;;;;;13.88;55.83;98700.06;6105195;23;20093;-78
2022/05/19 08:42:29;;;;;;;2.65;2.45;;;;;;;13.77;55.41;98704.72;6129706;23;20028;-80
2022/05/19 08:45:00;;;;;;;2.67;2.38;;;;;;;13.83;55.54;98703.25;6105170;23;20028;-79
2022/05/19 08:47:34;;;;;;;3.45;2.10;;;;;;;13.80;55.24;98714.28;6129759;23;20092;-80
2022/05/19 08:50:06;;;;;;;3.83;2.50;;;;;;;13.69;55.21;98714.56;6105223;23;20017;-79
2022/05/19 08:52:41;;;;;;;3.03;2.72;;;;;;;13.49;55.84;98717.44;6129067;23;20025;-78
2022/05/19 08:55:11;;;;;;;3.05;2.80;;;;;;;13.44;56.68;98714.41;6129705;23;20025;-79
2022/05/19 08:57:56;;;;;;;4.07;2.80;;;;;;;13.25;57.69;98702.00;6105061;23;20029;-80
2022/05/19 09:00:28;;;;;;;3.50;3.20;;;;;;;13.38;58.08;98717.69;6105228;23;20437;-78
2022/05/19 09:03:12;;;;;;;3.90;3.38;;;;;;;13.59;59.12;98706.63;6105158;23;20018;-78
2022/05/19 09:05:57;;;;;;;3.28;2.97;;;;;;;13.52;58.85;98719.00;6105001;23;20021;-78
2022/05/19 09:08:34;;;;;;;5.40;3.50;;;;;;;13.16;60.10;98718.16;6130144;23;20456;-80
2022/05/19 09:11:17;;;;;;;3.40;3.10;;;;;;;12.96;61.18;98704.06;6129327;23;20025;-78
2022/05/19 09:13:52;;;;;;;4.45;3.67;;;;;;;13.12;60.68;98705.03;6129374;23;20419;-80
2022/05/19 09:16:29;;;;;;;4.00;3.35;;;;;;;13.02;61.62;98704.31;6105250;23;20029;-79
2022/05/19 09:19:04;;;;;;;5.68;3.55;;;;;;;13.34;60.56;98703.75;6104758;23;20021;-78
2022/05/19 09:21:31;;;;;;;3.30;2.90;;;;;;;13.58;59.47;98688.84;6129590;23;20021;-79
2022/05/19 09:23:56;;;;;;;3.35;2.65;;;;;;;13.39;58.47;98695.25;6080934;23;20020;-77
2022/05/19 09:26:37;;;;;;;3.30;3.00;;;;;;;13.52;59.13;98703.72;6129367;23;20076;-80
2022/05/19 09:29:12;;;;;;;3.10;2.80;;;;;;;13.73;58.71;98703.38;6104714;23;20104;-79
2022/05/19 09:31:47;;;;;;;7.32;2.85;;;;;;;13.50;59.63;98697.69;6129178;23;20084;-79
2022/05/19 09:34:14;;;;;;;2.70;2.50;;;;;;;13.29;59.71;98699.84;6103827;23;20403;-79
2022/05/19 09:36:54;;;;;;;3.97;2.70;;;;;;;13.63;59.25;98680.28;6154902;23;20027;-80
2022/05/19 09:39:20;;;;;;;3.42;3.10;;;;;;;13.86;59.12;98665.31;6154860;23;20398;-81
2022/05/19 09:41:55;;;;;;;7.05;4.95;;;;;;;14.15;58.48;98662.25;6106509;23;20120;-81
2022/05/19 09:44:32;;;;;;;3.17;2.88;;;;;;;14.43;58.11;98659.31;6110356;23;20021;-81
2022/05/19 09:46:58;;;;;;;3.22;3.00;;;;;;;14.64;58.17;98686.63;6139633;23;20048;-78
2022/05/19 09:49:33;;;;;;;3.22;2.85;;;;;;;14.87;57.71;98676.09;6156368;23;20074;-78
2022/05/19 09:52:05;;;;;;;6.22;2.70;;;;;;;15.18;56.93;98668.19;6106066;23;20029;-78
2022/05/19 09:54:34;;;;;;;3.45;2.90;;;;;;;15.49;55.42;98659.41;6132837;23;20045;-79
2022/05/19 09:57:13;;;;;;;3.13;2.75;;;;;;;15.88;54.36;98647.91;6112485;23;20029;-82
2022/05/19 09:59:51;;;;;;;6.15;3.10;;;;;;;15.96;54.07;98650.56;6135135;23;20465;-87
2022/05/19 10:02:23;;;;;;;3.13;2.80;;;;;;;15.67;54.09;98651.16;6107204;23;20025;-80
2022/05/19 10:04:52;;;;;;;4.40;2.80;;;;;;;15.49;53.61;98648.63;6106348;23;20017;-80
2022/05/19 10:07:27;;;;;;;4.65;2.67;;;;;;;15.89;53.77;98649.59;6105936;23;20013;-79
2022/05/19 10:09:56;;;;;;;5.05;2.88;;;;;;;15.98;53.06;98643.13;6130003;23;20045;-81
2022/05/19 10:12:32;;;;;;;3.78;2.90;;;;;;;16.11;53.23;98642.59;6105770;23;20022;-80
2022/05/19 10:15:08;;;;;;;4.05;2.75;;;;;;;16.17;53.32;98631.97;6130033;23;20083;-79
2022/05/19 10:17:56;;;;;;;4.00;3.25;;;;;;;15.85;53.58;98637.47;6105723;23;20017;-81
2022/05/19 10:20:25;;;;;;;4.60;3.05;;;;;;;15.82;54.75;98633.25;6105599;23;20026;-80
2022/05/19 10:23:15;;;;;;;3.53;3.15;;;;;;;16.03;54.58;98627.31;6105372;23;20065;-80
2022/05/19 10:25:50;;;;;;;4.13;3.17;;;;;;;16.52;54.45;98600.06;6105897;23;20420;-80
2022/05/19 10:32:13;;;;;;;4.10;3.08;;;;;;;18.00;49.50;98616.59;6106372;23;20392;-79
2022/05/19 10:34:45;;;;;;;4.25;3.72;;;;;;;18.40;49.73;98611.69;6105329;23;20032;-80
2022/05/19 10:37:11;;;;;;;3.30;3.00;;;;;;;19.21;49.13;98603.34;6156531;23;20021;-80
2022/05/19 10:39:50;;;;;;;4.05;2.92;;;;;;;19.87;46.75;98606.53;6105585;23;20017;-78
2022/05/19 10:42:27;;;;;;;;;;;;;;;20.10;46.38;98601.63;6105953;23;20017;-79
2022/05/19 10:45:11;;;;;;;3.40;3.10;;;;;;;20.52;45.21;98610.59;6081621;23;19974;-80
2022/05/19 10:48:03;;;;;;;3.03;2.78;;;;;;;20.37;43.91;98613.44;6129772;23;20096;-79
2022/05/19 10:50:36;;;;;;;11.23;2.85;;;;;;;20.58;43.06;98604.34;6129603;23;20029;-80
2022/05/19 10:53:08;;;;;;;3.92;2.80;;;;;;;20.60;43.13;98607.69;6080972;23;20021;-80
2022/05/19 10:55:46;;;;;;;3.00;2.50;;;;;;;20.58;42.96;98598.91;6105364;23;20049;-79
2022/05/19 10:58:17;;;;;;;;;;;;;;;20.80;41.81;98601.47;6129745;23;20040;-79
2022/05/19 11:01:16;;;;;;;2.65;2.05;;;;;;;20.98;40.89;98593.53;6104727;23;19963;-79
2022/05/19 11:03:49;;;;;;;2.00;1.90;;;;;;;21.05;39.98;98588.09;6062408;23;20017;-79
2022/05/19 11:06:21;;;;;;;2.22;2.03;;;;;;;20.95;40.56;98593.09;6129351;23;20021;-79
2022/05/19 11:09:01;;;;;;;8.88;2.00;;;;;;;21.53;40.82;98583.31;6105951;23;20025;-79
2022/05/19 11:11:50;;;;;;;2.35;2.20;;;;;;;22.14;39.49;98584.00;6104553;23;20037;-81
2022/05/19 11:14:34;;;;;;;2.20;1.90;;;;;;;22.12;38.61;98572.47;6064492;23;20017;-79
2022/05/19 11:17:16;;;;;;;3.17;1.80;;;;;;;21.74;38.59;98581.38;6105382;23;20028;-81
2022/05/19 11:19:50;;;;;;;2.92;2.30;;;;;;;21.74;39.06;98582.22;6105537;23;20048;-82
2022/05/19 11:22:25;;;;;;;2.42;2.22;;;;;;;21.51;40.01;98570.97;6104953;23;20022;-80
2022/05/19 11:28:19;;;;;;;1.73;1.63;;;;;;;21.03;40.32;98582.91;6104426;23;20025;-80
2022/05/19 11:30:51;;;;;;;2.63;1.98;;;;;;;20.73;41.65;98585.16;6103740;23;20025;-81
2022/05/19 11:33:24;;;;;;;5.20;2.00;;;;;;;20.80;41.82;98579.75;6104423;23;20040;-80
2022/05/19 11:35:57;;;;;;;1.80;1.70;;;;;;;20.60;41.75;98576.97;6081397;23;20112;-81
2022/05/19 11:38:28;;;;;;;2.55;1.90;;;;;;;20.82;41.61;98545.88;6129881;23;20021;-82
2022/05/19 11:41:01;;;;;;;1.70;1.60;;;;;;;21.43;40.00;98569.28;6104692;23;20025;-82
2022/05/19 11:43:36;;;;;;;1.70;1.60;;;;;;;22.45;39.63;98561.44;6104597;23;20017;-81
2022/05/19 11:46:07;;;;;;;1.83;1.65;;;;;;;24.01;37.10;98571.47;6129051;23;20021;-82
2022/05/19 11:57:59;;;;;;;4.65;1.50;;;;;;;23.98;34.31;98553.63;6105512;23;20045;-82
2022/05/19 12:00:40;;;;;;;3.17;1.50;;;;;;;22.40;35.55;98575.72;6105581;23;20029;-82
2022/05/19 12:03:21;;;;;;;1.90;1.70;;;;;;;21.40;37.46;98561.59;6155429;23;20018;-82
2022/05/19 12:05:59;;;;;;;1.83;1.73;;;;;;;21.62;37.37;98567.59;6102628;23;20061;-81
2022/05/19 12:08:39;;;;;;;2.10;1.90;;;;;;;20.92;38.52;98556.34;6127900;23;20017;-80
2022/05/19 12:11:27;;;;;;;6.60;1.63;;;;;;;20.58;39.20;98550.03;6152711;23;20021;-82
2022/05/19 12:14:13;;;;;;;4.05;1.85;;;;;;;20.38;40.37;98554.53;6127357;23;20345;-80
2022/05/19 12:17:01;;;;;;;2.42;1.80;;;;;;;20.25;40.33;98551.81;6152614;23;20108;-80
2022/05/19 12:19:37;;;;;;;2.00;1.80;;;;;;;20.01;40.60;98543.19;6127774;23;20126;-79